Time;durP1;ratioP1;P1;durP2;ratioP2;P2;SDS_P1;SDS_P2;PMS_P1;PMS_P2;Temp;Humidity;BMP_temperature;BMP_pressure;BME280_temperature;BME280_humidity;BME280_pressure;Samples;Min_cycle;Max_cycle;Signal;HPM_P1;HPM_P2
2023/09/27 00:00:08;;;;;;;7.40;3.25;;;;;;;20.85;49.81;100243.87;4385564;32;35348;-71
2023/09/27 00:02:39;;;;;;;7.18;3.87;;;;;;;20.94;49.60;100251.00;4386217;32;35654;-70
2023/09/27 00:05:08;;;;;;;6.60;3.60;;;;;;;20.87;49.80;100250.00;4390079;32;33357;-70
2023/09/27 00:07:38;;;;;;;4.93;3.03;;;;;;;20.85;49.90;100246.59;4389866;32;33028;-71
2023/09/27 00:10:11;;;;;;;8.63;6.15;;;;;;;20.77;50.00;100241.13;4388741;32;34813;-71
2023/09/27 00:12:40;;;;;;;7.85;3.53;;;;;;;20.84;50.07;100240.28;4387858;32;35580;-71
2023/09/27 00:15:10;;;;;;;7.40;4.03;;;;;;;20.90;49.74;100239.63;4384256;32;33607;-71
2023/09/27 00:17:38;;;;;;;10.82;4.37;;;;;;;20.96;49.66;100237.22;4386700;32;33284;-71
2023/09/27 00:20:10;;;;;;;4.65;3.05;;;;;;;20.91;49.80;100240.47;4387758;32;34225;-71
2023/09/27 00:22:38;;;;;;;7.62;3.53;;;;;;;20.79;50.08;100236.38;4389153;32;33775;-70
2023/09/27 00:25:11;;;;;;;7.35;3.60;;;;;;;20.86;49.70;100232.78;4386628;32;33272;-71
2023/09/27 00:27:38;;;;;;;13.18;3.75;;;;;;;20.81;50.21;100239.78;4387930;32;33761;-71
2023/09/27 00:30:08;;;;;;;7.12;3.12;;;;;;;20.80;50.09;100238.06;4390084;32;33846;-71
2023/09/27 00:32:36;;;;;;;9.98;4.57;;;;;;;20.75;50.16;100232.31;4387163;32;33993;-71
2023/09/27 00:35:04;;;;;;;6.70;3.50;;;;;;;20.76;50.13;100236.72;4387015;32;34356;-72
2023/09/27 00:37:36;;;;;;;6.43;3.40;;;;;;;20.64;50.27;100234.34;4394167;32;35220;-72
2023/09/27 00:40:10;;;;;;;7.62;5.03;;;;;;;20.67;50.20;100234.00;4389556;32;33442;-72
2023/09/27 00:42:38;;;;;;;6.47;3.93;;;;;;;20.75;50.21;100240.47;4389207;32;34048;-72
2023/09/27 00:45:06;;;;;;;6.10;3.12;;;;;;;20.68;50.33;100237.56;4387423;32;33630;-71
2023/09/27 00:47:36;;;;;;;6.28;3.25;;;;;;;20.59;50.65;100241.28;4391598;32;33887;-71
2023/09/27 00:50:07;;;;;;;11.00;2.87;;;;;;;20.69;50.35;100242.81;4394679;32;35024;-72
2023/09/27 00:52:37;;;;;;;5.90;3.22;;;;;;;20.75;50.04;100243.19;4388973;32;33959;-71
2023/09/27 00:55:07;;;;;;;11.18;3.22;;;;;;;20.46;50.83;100241.75;4371821;32;34818;-71
2023/09/27 00:57:35;;;;;;;4.37;2.85;;;;;;;20.58;50.36;100242.31;4390713;32;35591;-71
2023/09/27 01:00:04;;;;;;;5.00;2.62;;;;;;;20.49;50.47;100235.97;4372135;32;33689;-71
2023/09/27 01:02:32;;;;;;;6.15;2.92;;;;;;;20.59;50.11;100235.84;4384820;32;35091;-71
2023/09/27 01:05:00;;;;;;;6.05;2.95;;;;;;;20.53;50.33;100244.66;4386967;32;33359;-71
2023/09/27 01:07:28;;;;;;;8.60;3.65;;;;;;;20.44;50.54;100241.03;4394040;32;35346;-72
2023/09/27 01:09:56;;;;;;;6.37;3.45;;;;;;;20.39;50.64;100244.28;4390216;32;34071;-72
2023/09/27 01:12:25;;;;;;;13.02;3.42;;;;;;;20.55;50.15;100246.22;4377837;32;33938;-71
2023/09/27 01:14:53;;;;;;;8.10;3.85;;;;;;;20.63;49.89;100243.50;4388567;32;33501;-71
2023/09/27 01:17:21;;;;;;;5.05;3.08;;;;;;;20.50;50.25;100245.81;4390534;32;34036;-72
2023/09/27 01:19:48;;;;;;;5.72;3.00;;;;;;;20.45;50.58;100242.75;4390632;32;34102;-72
2023/09/27 01:22:16;;;;;;;9.52;3.83;;;;;;;20.45;50.46;100246.34;4389829;32;34010;-71
2023/09/27 01:24:44;;;;;;;7.97;3.83;;;;;;;20.52;50.17;100245.69;4389195;32;35188;-71
2023/09/27 01:27:12;;;;;;;7.62;3.47;;;;;;;20.44;50.75;100241.88;4371488;32;33730;-70
2023/09/27 01:29:40;;;;;;;8.43;3.60;;;;;;;20.46;50.39;100252.62;4390381;32;34044;-71
2023/09/27 01:32:08;;;;;;;6.30;4.32;;;;;;;20.48;50.39;100240.56;4389326;32;34748;-71
2023/09/27 01:34:35;;;;;;;8.95;3.55;;;;;;;20.50;50.44;100244.97;4389273;32;33875;-71
2023/09/27 01:37:04;;;;;;;12.40;4.22;;;;;;;20.48;50.51;100245.13;4390417;32;33650;-71
2023/09/27 01:39:32;;;;;;;7.43;3.62;;;;;;;20.49;50.45;100246.84;4391794;32;34108;-70
2023/09/27 01:41:59;;;;;;;9.43;3.80;;;;;;;20.41;50.45;100247.66;4390120;32;35269;-71
2023/09/27 01:44:27;;;;;;;7.50;3.42;;;;;;;20.41;50.58;100250.37;4370494;32;33431;-71
2023/09/27 01:46:55;;;;;;;6.70;3.12;;;;;;;20.37;50.65;100248.16;4390296;32;35204;-72
2023/09/27 01:49:23;;;;;;;5.55;3.47;;;;;;;20.44;50.37;100241.88;4389445;32;33528;-71
2023/09/27 01:51:51;;;;;;;6.47;3.53;;;;;;;20.40;50.25;100245.13;4390304;32;33954;-71
2023/09/27 01:54:19;;;;;;;8.38;3.70;;;;;;;20.35;50.31;100242.03;4389527;32;33356;-72
2023/09/27 01:56:47;;;;;;;7.25;4.15;;;;;;;20.29;50.60;100240.84;4388693;32;33594;-71
2023/09/27 01:59:15;;;;;;;3.42;2.12;;;;;;;20.36;50.18;100241.88;4387676;32;34007;-70
2023/09/27 02:01:43;;;;;;;10.88;3.80;;;;;;;20.34;50.25;100243.91;4389742;32;34819;-70
2023/09/27 02:04:10;;;;;;;7.47;3.65;;;;;;;20.37;50.25;100245.44;4388678;32;33505;-70
2023/09/27 02:06:38;;;;;;;6.00;3.42;;;;;;;20.15;51.05;100238.75;4389236;32;33817;-71
2023/09/27 02:09:06;;;;;;;4.72;2.78;;;;;;;20.33;50.45;100241.38;4390329;32;35449;-70
2023/09/27 02:11:34;;;;;;;9.45;3.37;;;;;;;20.28;50.78;100246.44;4389205;32;33686;-70
2023/09/27 02:14:04;;;;;;;8.55;4.68;;;;;;;20.18;51.10;100243.84;4387184;32;33669;-71
2023/09/27 02:16:33;;;;;;;7.82;3.10;;;;;;;20.19;50.92;100238.28;4388646;32;35057;-71
2023/09/27 02:19:04;;;;;;;4.28;3.10;;;;;;;20.24;50.77;100252.19;4389156;32;33789;-70
2023/09/27 02:21:32;;;;;;;9.00;5.40;;;;;;;20.30;50.74;100255.28;4387488;32;33826;-71
2023/09/27 02:24:00;;;;;;;13.57;6.72;;;;;;;20.25;50.80;100255.75;4389206;32;33611;-71
2023/09/27 02:26:28;;;;;;;4.87;2.92;;;;;;;20.08;51.39;100249.44;4382746;32;34368;-70
2023/09/27 02:28:56;;;;;;;4.87;2.53;;;;;;;20.17;51.25;100245.72;4389612;32;35025;-71
2023/09/27 02:31:24;;;;;;;7.30;3.83;;;;;;;20.33;50.96;100242.22;4385692;32;34018;-70
2023/09/27 02:33:52;;;;;;;12.05;5.62;;;;;;;20.35;50.86;100248.34;4388140;32;34224;-71
2023/09/27 02:36:20;;;;;;;6.40;3.58;;;;;;;20.37;50.74;100246.28;4389463;32;33790;-70
2023/09/27 02:38:47;;;;;;;6.25;2.65;;;;;;;20.37;50.69;100253.59;4388822;32;34977;-70
2023/09/27 02:41:16;;;;;;;8.07;3.42;;;;;;;20.35;50.86;100247.47;4388055;32;33894;-70
2023/09/27 02:43:43;;;;;;;7.95;3.85;;;;;;;20.38;50.65;100245.25;4389109;32;33440;-70
2023/09/27 02:46:11;;;;;;;8.52;4.28;;;;;;;20.23;51.17;100241.50;4388694;32;33647;-70
2023/09/27 02:48:39;;;;;;;7.45;4.30;;;;;;;20.31;50.94;100237.94;4389431;32;33754;-71
2023/09/27 02:51:07;;;;;;;6.32;4.12;;;;;;;20.37;50.72;100240.00;4388647;32;32498;-71
2023/09/27 02:53:35;;;;;;;7.57;4.10;;;;;;;20.40;50.63;100245.13;4389596;32;33601;-71
2023/09/27 02:56:05;;;;;;;7.87;5.40;;;;;;;20.37;50.76;100246.28;4387354;32;33818;-72
2023/09/27 02:58:33;;;;;;;5.97;3.20;;;;;;;20.42;50.61;100246.66;4389184;32;34039;-72
2023/09/27 03:01:00;;;;;;;6.05;3.33;;;;;;;20.40;50.72;100248.69;4386537;32;33737;-71
2023/09/27 03:03:30;;;;;;;6.50;3.50;;;;;;;20.44;50.60;100249.19;4387476;32;33359;-69
2023/09/27 03:05:59;;;;;;;8.30;5.22;;;;;;;20.46;50.63;100247.16;4385903;32;35029;-70
2023/09/27 03:08:26;;;;;;;7.95;3.15;;;;;;;20.50;50.67;100247.69;4390020;32;34175;-70
2023/09/27 03:10:54;;;;;;;4.22;2.92;;;;;;;20.57;50.63;100249.59;4388942;32;33838;-70
2023/09/27 03:13:22;;;;;;;5.05;2.15;;;;;;;20.65;50.57;100240.63;4389686;32;33358;-68
2023/09/27 03:15:56;;;;;;;10.98;3.75;;;;;;;20.67;50.55;100244.88;4390401;32;33814;-69
2023/09/27 03:18:24;;;;;;;7.87;4.22;;;;;;;20.70;50.42;100249.94;4384103;32;33875;-69
2023/09/27 03:20:52;;;;;;;6.45;3.12;;;;;;;20.76;50.17;100240.28;4389024;32;33821;-69
2023/09/27 03:23:20;;;;;;;7.10;4.03;;;;;;;20.84;49.94;100239.44;4389528;32;33588;-70
2023/09/27 03:25:49;;;;;;;5.22;3.55;;;;;;;20.88;49.94;100241.66;4382758;32;34872;-70
2023/09/27 03:28:16;;;;;;;3.28;2.53;;;;;;;20.86;49.82;100240.13;4386134;32;35617;-71
2023/09/27 03:30:46;;;;;;;6.30;3.45;;;;;;;20.92;49.47;100244.88;4385854;32;34232;-71
2023/09/27 03:33:14;;;;;;;5.75;3.35;;;;;;;20.91;49.44;100235.03;4387592;32;33889;-74
2023/09/27 03:35:42;;;;;;;7.25;3.15;;;;;;;20.93;49.42;100238.44;4388474;32;33654;-74
2023/09/27 03:38:11;;;;;;;8.15;4.00;;;;;;;20.89;49.41;100239.78;4390760;32;34880;-73
2023/09/27 03:40:41;;;;;;;7.72;4.57;;;;;;;20.90;49.34;100244.22;4389902;32;35166;-72
2023/09/27 03:43:09;;;;;;;6.80;3.78;;;;;;;20.89;49.45;100242.50;4387612;32;33518;-73
2023/09/27 03:45:36;;;;;;;6.28;4.18;;;;;;;20.82;49.64;100246.91;4396439;32;34405;-73
2023/09/27 03:48:06;;;;;;;9.65;3.85;;;;;;;20.77;49.82;100243.84;4388500;32;34819;-73
2023/09/27 03:50:34;;;;;;;7.05;4.80;;;;;;;20.75;49.68;100249.47;4389296;32;33390;-68
2023/09/27 03:53:04;;;;;;;4.78;3.20;;;;;;;20.68;49.81;100241.13;4390181;32;33608;-69
2023/09/27 03:55:32;;;;;;;9.30;3.72;;;;;;;20.63;49.99;100246.22;4386460;32;33609;-69
2023/09/27 03:57:59;;;;;;;11.80;4.62;;;;;;;20.57;50.10;100244.16;4377367;32;35022;-69
2023/09/27 04:00:27;;;;;;;8.70;4.43;;;;;;;20.59;49.98;100235.84;4384431;32;33839;-69
2023/09/27 04:02:55;;;;;;;5.65;2.75;;;;;;;20.26;51.61;100246.63;4388088;32;33567;-69
2023/09/27 04:05:25;;;;;;;4.87;3.20;;;;;;;20.46;50.53;100239.88;4387782;32;33641;-68
2023/09/27 04:07:53;;;;;;;6.18;3.65;;;;;;;20.54;50.34;100246.38;4388861;32;33820;-68
2023/09/27 04:10:21;;;;;;;11.45;4.12;;;;;;;20.55;50.07;100248.94;4384573;32;34174;-68
2023/09/27 04:12:48;;;;;;;8.93;4.47;;;;;;;20.57;50.14;100244.16;4388655;32;34242;-68
2023/09/27 04:15:17;;;;;;;8.15;3.90;;;;;;;20.60;50.14;100241.09;4387974;32;34589;-69
2023/09/27 04:17:45;;;;;;;8.27;4.15;;;;;;;20.58;50.22;100242.31;4388578;32;34651;-69
2023/09/27 04:20:19;;;;;;;10.27;6.22;;;;;;;20.60;50.30;100242.97;4387332;32;34241;-69
2023/09/27 04:22:48;;;;;;;11.12;6.53;;;;;;;20.61;50.28;100241.94;4387873;32;33477;-69
2023/09/27 04:25:17;;;;;;;14.65;4.28;;;;;;;20.59;50.19;100246.72;4386577;32;33790;-69
2023/09/27 04:27:46;;;;;;;5.15;3.28;;;;;;;20.59;50.21;100242.12;4389409;32;34801;-69
2023/09/27 04:30:14;;;;;;;5.12;3.62;;;;;;;20.60;50.19;100248.41;4387424;32;34030;-69
2023/09/27 04:32:43;;;;;;;10.23;5.82;;;;;;;20.59;50.37;100249.44;4387776;32;33517;-69
2023/09/27 04:35:12;;;;;;;7.45;4.53;;;;;;;20.60;50.48;100262.84;4387133;32;35079;-69
2023/09/27 04:37:41;;;;;;;7.87;3.55;;;;;;;20.66;50.26;100264.91;4387686;32;33903;-69
2023/09/27 04:40:12;;;;;;;6.32;3.67;;;;;;;20.64;50.19;100256.09;4389339;32;34022;-69
2023/09/27 04:42:45;;;;;;;5.75;3.70;;;;;;;20.64;50.30;100266.09;4387115;32;33471;-68
2023/09/27 04:45:14;;;;;;;6.18;3.25;;;;;;;20.47;50.78;100257.03;4387711;32;34650;-69
2023/09/27 04:47:44;;;;;;;17.27;4.60;;;;;;;20.52;50.56;100260.13;4390309;32;34595;-69
2023/09/27 04:50:12;;;;;;;5.80;3.97;;;;;;;20.53;50.53;100261.84;4391493;32;34948;-69
2023/09/27 04:52:40;;;;;;;9.77;4.20;;;;;;;20.59;50.37;100266.59;4389905;32;33478;-69
2023/09/27 04:55:09;;;;;;;7.30;4.07;;;;;;;20.66;50.18;100269.50;4391439;32;34673;-69
2023/09/27 04:57:37;;;;;;;4.62;2.33;;;;;;;20.62;50.28;100263.56;4389340;32;35300;-69
2023/09/27 05:00:06;;;;;;;10.07;5.10;;;;;;;20.54;50.64;100257.25;4389503;32;33915;-69
2023/09/27 05:02:34;;;;;;;9.48;3.83;;;;;;;20.55;50.52;100261.69;4383541;32;33439;-69
2023/09/27 05:05:01;;;;;;;6.80;4.12;;;;;;;20.57;50.23;100260.47;4390420;32;33705;-69
2023/09/27 05:07:29;;;;;;;9.82;3.03;;;;;;;20.61;50.20;100266.44;4387631;32;33557;-69
2023/09/27 05:09:57;;;;;;;8.90;3.30;;;;;;;20.65;50.08;100263.22;4391322;32;34019;-69
2023/09/27 05:12:25;;;;;;;5.80;3.65;;;;;;;20.78;49.90;100262.72;4388454;32;33371;-69
2023/09/27 05:14:52;;;;;;;8.43;4.57;;;;;;;20.81;49.99;100267.84;4399804;32;34532;-69
2023/09/27 05:17:20;;;;;;;8.43;4.72;;;;;;;20.80;50.33;100266.16;4401606;32;33920;-69
2023/09/27 05:19:48;;;;;;;8.38;3.95;;;;;;;20.75;50.67;100273.94;4391278;32;35441;-68
2023/09/27 05:22:19;;;;;;;6.87;3.55;;;;;;;20.80;50.35;100270.72;4390393;32;33201;-70
2023/09/27 05:24:47;;;;;;;6.82;3.37;;;;;;;20.84;50.26;100272.09;4389962;32;33850;-70
2023/09/27 05:27:14;;;;;;;8.13;4.25;;;;;;;20.86;50.13;100272.75;4389939;32;34915;-70
2023/09/27 05:29:42;;;;;;;9.18;5.55;;;;;;;20.94;50.22;100273.63;4390734;32;33950;-70
2023/09/27 05:32:10;;;;;;;9.50;4.55;;;;;;;20.97;50.41;100277.03;4386965;32;32187;-70
2023/09/27 05:34:37;;;;;;;7.47;3.90;;;;;;;21.04;50.17;100272.62;4397274;32;33813;-70
2023/09/27 05:37:05;;;;;;;10.35;5.80;;;;;;;21.01;50.37;100279.25;4393520;32;34197;-70
2023/09/27 05:39:33;;;;;;;16.48;6.47;;;;;;;20.97;50.47;100285.19;4391832;32;33565;-70
2023/09/27 05:42:00;;;;;;;7.20;3.22;;;;;;;21.11;50.38;100277.19;4389460;32;33749;-70
2023/09/27 05:44:28;;;;;;;7.03;3.67;;;;;;;21.24;50.18;100282.13;4391965;32;34818;-70
2023/09/27 05:46:56;;;;;;;9.45;3.47;;;;;;;21.35;50.22;100283.72;4390119;32;33929;-70
2023/09/27 05:49:24;;;;;;;8.25;4.05;;;;;;;21.52;49.90;100285.38;4392287;32;33930;-70
2023/09/27 05:51:52;;;;;;;9.55;3.92;;;;;;;21.58;50.26;100281.97;4388594;32;34692;-70
2023/09/27 05:54:20;;;;;;;9.75;3.60;;;;;;;21.76;49.50;100279.00;4396286;32;33643;-70
2023/09/27 05:56:53;;;;;;;8.27;5.78;;;;;;;21.88;49.51;100287.69;4391483;32;34295;-70
2023/09/27 05:59:22;;;;;;;8.73;6.05;;;;;;;21.98;49.73;100291.06;4391765;32;33678;-70
2023/09/27 06:01:51;;;;;;;9.98;4.47;;;;;;;22.04;50.17;100289.50;4390129;32;33474;-70
2023/09/27 06:04:19;;;;;;;12.40;5.35;;;;;;;22.22;49.62;100297.50;4391251;32;34007;-70
2023/09/27 06:06:48;;;;;;;13.32;4.32;;;;;;;22.40;49.45;100300.78;4390104;32;33969;-70
2023/09/27 06:09:16;;;;;;;6.10;4.22;;;;;;;22.57;49.34;100296.12;4390222;32;34849;-70
2023/09/27 06:11:45;;;;;;;6.85;4.35;;;;;;;22.82;48.33;100295.97;4391242;32;33450;-70
2023/09/27 06:14:12;;;;;;;7.65;3.80;;;;;;;22.88;48.47;100300.69;4389618;32;34214;-70
2023/09/27 06:16:41;;;;;;;7.50;3.22;;;;;;;22.99;47.71;100300.31;4382155;32;33731;-70
2023/09/27 06:19:09;;;;;;;7.57;4.25;;;;;;;23.03;47.79;100298.91;4381077;32;34010;-70
2023/09/27 06:21:37;;;;;;;13.13;4.53;;;;;;;23.14;47.71;100305.81;4391399;32;34477;-70
2023/09/27 06:24:05;;;;;;;8.98;4.32;;;;;;;23.08;48.19;100312.00;4392782;32;34856;-70
2023/09/27 06:26:33;;;;;;;7.65;4.72;;;;;;;23.23;47.82;100316.50;4388871;32;34125;-70
2023/09/27 06:29:01;;;;;;;9.15;5.10;;;;;;;23.13;47.73;100323.25;4390112;32;35512;-70
2023/09/27 06:31:29;;;;;;;9.10;4.62;;;;;;;23.29;47.39;100325.00;4388356;32;33327;-70
2023/09/27 06:33:57;;;;;;;8.10;4.68;;;;;;;23.28;46.72;100324.16;4389896;32;33964;-70
2023/09/27 06:36:29;;;;;;;11.43;4.82;;;;;;;23.30;46.85;100338.47;4387524;32;34722;-70
2023/09/27 06:38:57;;;;;;;15.02;4.28;;;;;;;23.21;46.99;100332.22;4389713;32;34442;-70
2023/09/27 06:41:25;;;;;;;9.20;5.57;;;;;;;23.41;47.01;100332.56;4390599;32;33506;-70
2023/09/27 06:43:53;;;;;;;8.43;4.72;;;;;;;23.12;47.85;100335.22;4387073;32;33789;-70
2023/09/27 06:46:22;;;;;;;8.55;5.25;;;;;;;23.52;46.69;100336.75;4390117;32;34616;-70
2023/09/27 06:48:54;;;;;;;8.73;4.65;;;;;;;23.74;46.93;100345.13;4385961;32;33941;-70
2023/09/27 06:51:22;;;;;;;8.55;5.75;;;;;;;24.11;46.07;100345.06;4396607;32;34883;-70
2023/09/27 06:53:49;;;;;;;11.20;5.30;;;;;;;23.96;46.31;100352.41;4406678;32;33786;-70
2023/09/27 06:56:17;;;;;;;8.93;4.43;;;;;;;24.02;46.61;100350.81;4406801;32;35247;-70
2023/09/27 06:58:45;;;;;;;19.52;5.15;;;;;;;23.82;47.01;100348.63;4389724;32;33669;-70
2023/09/27 07:01:13;;;;;;;12.63;5.55;;;;;;;23.95;47.03;100348.00;4382891;32;223803;-69
2023/09/27 07:03:41;;;;;;;19.80;4.03;;;;;;;23.78;45.94;100347.28;4386709;32;32494;-70
2023/09/27 07:06:09;;;;;;;11.93;4.00;;;;;;;23.95;46.51;100350.72;4386376;32;34005;-70
2023/09/27 07:08:37;;;;;;;14.90;4.50;;;;;;;24.06;45.48;100349.41;4387842;32;34206;-71
2023/09/27 07:11:06;;;;;;;6.25;3.65;;;;;;;24.05;44.53;100351.28;4388113;32;33666;-70
2023/09/27 07:13:34;;;;;;;10.18;4.57;;;;;;;23.94;44.55;100351.72;4390904;32;33904;-70
2023/09/27 07:16:03;;;;;;;8.30;4.45;;;;;;;23.78;44.32;100347.28;4387423;32;34136;-71
2023/09/27 07:18:30;;;;;;;9.60;5.45;;;;;;;23.86;43.89;100349.94;4375681;32;34854;-70
2023/09/27 07:20:59;;;;;;;6.40;3.33;;;;;;;23.96;44.22;100354.31;4389985;32;34781;-70
2023/09/27 07:23:27;;;;;;;8.88;4.40;;;;;;;24.07;44.79;100357.41;4390326;32;33596;-70
2023/09/27 07:25:54;;;;;;;7.90;4.03;;;;;;;23.08;45.56;100358.41;4394440;32;33739;-70
2023/09/27 07:28:22;;;;;;;15.32;5.12;;;;;;;23.85;45.03;100363.78;4395847;32;34889;-70
2023/09/27 07:30:52;;;;;;;13.77;3.83;;;;;;;23.83;44.41;100363.13;4388453;32;32849;-70
2023/09/27 07:33:20;;;;;;;12.13;5.15;;;;;;;24.29;43.66;100365.72;4388361;32;33549;-70
2023/09/27 07:35:51;;;;;;;10.32;4.22;;;;;;;24.37;43.52;100363.75;4386086;32;33586;-70
2023/09/27 07:38:19;;;;;;;7.80;4.37;;;;;;;24.10;43.84;100367.13;4390997;32;34332;-70
2023/09/27 07:40:48;;;;;;;7.82;4.43;;;;;;;24.93;42.09;100368.66;4389726;32;34098;-70
2023/09/27 07:43:16;;;;;;;8.40;4.53;;;;;;;24.91;42.17;100369.91;4387813;32;33990;-70
2023/09/27 07:45:46;;;;;;;10.30;5.50;;;;;;;24.95;42.13;100363.03;4387632;32;34688;-70
2023/09/27 07:48:14;;;;;;;8.55;4.62;;;;;;;24.85;41.31;100366.06;4383094;32;33988;-70
2023/09/27 07:50:43;;;;;;;10.07;4.90;;;;;;;24.22;42.24;100371.09;4375488;32;34712;-71
2023/09/27 07:53:11;;;;;;;9.15;5.55;;;;;;;24.39;42.54;100374.47;4388699;32;34121;-70
2023/09/27 07:55:50;;;;;;;6.57;4.03;;;;;;;23.98;42.87;100374.06;4391138;32;33784;-70
2023/09/27 07:58:19;;;;;;;13.32;4.05;;;;;;;24.05;42.89;100372.31;4394698;32;34906;-70
2023/09/27 08:00:46;;;;;;;9.27;4.03;;;;;;;24.18;42.86;100364.31;4389397;32;33524;-70
2023/09/27 08:03:14;;;;;;;8.25;4.53;;;;;;;24.38;41.96;100372.78;4388483;32;33667;-71
2023/09/27 08:05:43;;;;;;;7.90;4.93;;;;;;;24.52;42.79;100376.56;4388982;32;34780;-71
2023/09/27 08:08:13;;;;;;;6.25;3.67;;;;;;;24.43;41.55;100374.97;4387587;32;34953;-70
2023/09/27 08:10:43;;;;;;;7.12;4.32;;;;;;;24.33;42.20;100375.22;4387887;32;33536;-70
2023/09/27 08:13:16;;;;;;;11.30;3.62;;;;;;;24.50;42.37;100378.69;4385655;32;33557;-71
2023/09/27 08:15:47;;;;;;;8.40;4.03;;;;;;;24.52;42.36;100382.06;4386879;32;33846;-70
2023/09/27 08:18:15;;;;;;;6.93;4.03;;;;;;;24.70;42.26;100379.78;4387949;32;33566;-70
2023/09/27 08:20:44;;;;;;;12.93;4.62;;;;;;;24.72;42.33;100376.81;4390181;32;33753;-71
2023/09/27 08:23:12;;;;;;;8.57;4.37;;;;;;;24.42;42.72;100387.81;4388958;32;33727;-70
2023/09/27 08:25:40;;;;;;;9.27;4.25;;;;;;;24.65;41.98;100382.22;4389820;32;33884;-70
2023/09/27 08:28:09;;;;;;;11.45;6.62;;;;;;;24.46;43.62;100385.53;4387091;32;34771;-70
2023/09/27 08:30:36;;;;;;;8.15;4.37;;;;;;;24.42;43.21;100378.75;4379401;32;33946;-71
2023/09/27 08:33:04;;;;;;;6.85;4.03;;;;;;;24.72;42.87;100388.66;4388200;32;33888;-70
2023/09/27 08:35:32;;;;;;;6.62;3.70;;;;;;;24.86;42.25;100379.56;4384825;32;33822;-69
2023/09/27 08:38:00;;;;;;;10.43;5.65;;;;;;;24.59;42.76;100388.47;4384871;32;34111;-70
2023/09/27 08:40:28;;;;;;;7.60;3.78;;;;;;;24.73;42.51;100384.88;4388044;32;33452;-69
2023/09/27 08:42:57;;;;;;;12.60;6.07;;;;;;;24.53;44.28;100383.78;4387026;32;34769;-69
2023/09/27 08:45:24;;;;;;;11.82;4.70;;;;;;;24.59;43.49;100382.97;4385889;32;34045;-69
2023/09/27 08:47:54;;;;;;;11.45;5.57;;;;;;;24.45;43.35;100381.12;4376125;32;34971;-69
2023/09/27 08:50:23;;;;;;;6.55;4.12;;;;;;;24.36;43.09;100381.16;4389100;32;33428;-69
2023/09/27 08:52:51;;;;;;;11.05;6.80;;;;;;;24.37;43.45;100382.03;4388023;32;33506;-70
2023/09/27 08:55:19;;;;;;;6.93;4.35;;;;;;;24.62;43.15;100391.69;4386785;32;35254;-70
2023/09/27 08:57:49;;;;;;;6.78;4.30;;;;;;;24.80;43.12;100394.00;4388093;32;34976;-70
2023/09/27 09:00:26;;;;;;;9.25;4.82;;;;;;;24.52;43.90;100379.31;4386484;32;33320;-69
2023/09/27 09:02:59;;;;;;;9.50;3.87;;;;;;;24.81;42.74;100392.09;4386970;32;33934;-69
2023/09/27 09:05:28;;;;;;;8.60;3.92;;;;;;;24.90;42.14;100390.13;4389254;32;35236;-70
2023/09/27 09:07:59;;;;;;;8.05;4.68;;;;;;;24.75;43.45;100388.28;4389433;32;35305;-69
2023/09/27 09:10:28;;;;;;;14.00;6.05;;;;;;;24.62;43.14;100385.34;4385677;32;34429;-69
2023/09/27 09:12:59;;;;;;;9.93;4.80;;;;;;;24.79;43.56;100375.03;4377545;32;34683;-72
2023/09/27 09:15:35;;;;;;;7.45;4.57;;;;;;;24.71;43.27;100373.25;4382472;32;34164;-70
2023/09/27 09:18:08;;;;;;;12.02;3.50;;;;;;;24.86;43.64;100375.97;4384051;32;34034;-71
2023/09/27 09:20:54;;;;;;;9.68;4.75;;;;;;;25.38;42.94;100365.81;4387653;32;33464;-70
2023/09/27 09:23:33;;;;;;;11.77;5.70;;;;;;;24.85;42.77;100369.66;4381087;32;34453;-70
2023/09/27 09:26:11;;;;;;;7.22;3.55;;;;;;;25.35;42.78;100368.94;4379793;32;33851;-70
2023/09/27 09:29:09;;;;;;;13.27;5.80;;;;;;;25.62;41.69;100379.13;4390403;32;33792;-70
2023/09/27 09:31:36;;;;;;;12.25;5.68;;;;;;;25.82;41.35;100364.75;4341887;32;34265;-69
2023/09/27 09:34:05;;;;;;;8.80;4.57;;;;;;;25.41;42.41;100368.16;4340497;32;34448;-70
2023/09/27 09:36:34;;;;;;;6.85;3.47;;;;;;;25.29;41.99;100370.56;4338853;32;33740;-70
2023/09/27 09:39:16;;;;;;;13.68;5.32;;;;;;;25.74;40.53;100372.03;4342399;32;34023;-73
2023/09/27 09:41:47;;;;;;;10.38;5.07;;;;;;;25.43;41.89;100371.56;4340222;32;33642;-73
2023/09/27 09:44:18;;;;;;;10.10;4.93;;;;;;;25.26;41.55;100365.47;4341696;32;33791;-71
2023/09/27 09:46:46;;;;;;;16.42;6.25;;;;;;;25.25;42.30;100358.31;4341577;32;34174;-71
2023/09/27 09:49:18;;;;;;;11.25;5.90;;;;;;;25.72;41.63;100356.84;4341686;32;33768;-71
2023/09/27 09:51:47;;;;;;;11.80;5.18;;;;;;;25.54;41.82;100354.56;4343104;32;34520;-72
2023/09/27 09:54:28;;;;;;;8.93;5.18;;;;;;;25.93;41.38;100358.69;4341854;32;33306;-71
2023/09/27 09:56:59;;;;;;;8.73;4.65;;;;;;;25.86;40.32;100360.56;4340363;32;33699;-72
2023/09/27 10:00:12;;;;;;;9.88;4.15;;;;;;;25.70;40.52;100353.44;4341585;32;34107;-72
2023/09/27 10:02:55;;;;;;;9.68;5.62;;;;;;;25.96;40.27;100358.31;4317900;33;33208;-71
2023/09/27 10:05:24;;;;;;;8.07;4.28;;;;;;;25.80;40.07;100351.19;4339087;32;34719;-71
2023/09/27 10:07:52;;;;;;;12.10;5.50;;;;;;;25.88;41.29;100350.25;4328563;32;35718;-73
2023/09/27 10:10:20;;;;;;;13.73;5.47;;;;;;;26.38;38.84;100350.97;4356209;32;34286;-74
2023/09/27 10:12:51;;;;;;;8.73;5.00;;;;;;;26.24;39.15;100347.31;4357909;32;33381;-74
2023/09/27 10:15:20;;;;;;;19.50;5.70;;;;;;;26.45;38.61;100349.09;4349598;32;33487;-74
2023/09/27 10:17:47;;;;;;;9.60;4.93;;;;;;;26.57;38.89;100339.25;4346237;32;33576;-73
2023/09/27 10:20:24;;;;;;;9.98;4.62;;;;;;;26.62;38.04;100345.00;4355123;32;34158;-74
2023/09/27 10:22:52;;;;;;;7.70;3.72;;;;;;;27.12;38.38;100341.97;4359559;32;33388;-74
2023/09/27 10:25:32;;;;;;;9.27;5.00;;;;;;;26.89;36.56;100342.34;4358176;32;33795;-74
2023/09/27 10:28:04;;;;;;;11.45;4.53;;;;;;;26.28;38.56;100342.25;4371661;32;33862;-73
2023/09/27 10:30:41;;;;;;;10.55;4.28;;;;;;;26.92;37.80;100336.44;4356030;32;33979;-71
2023/09/27 10:33:14;;;;;;;11.25;4.37;;;;;;;26.17;38.46;100338.19;4352154;32;34230;-72
2023/09/27 10:35:43;;;;;;;14.57;4.65;;;;;;;26.65;38.38;100327.28;4359126;32;33487;-70
2023/09/27 10:38:12;;;;;;;9.70;4.20;;;;;;;26.60;37.80;100327.88;4359274;32;34320;-71
2023/09/27 10:40:42;;;;;;;8.13;3.85;;;;;;;26.77;36.63;100330.25;4373554;32;34151;-71
2023/09/27 10:43:28;;;;;;;6.43;3.67;;;;;;;26.83;35.44;100329.44;4373807;32;33467;-71
2023/09/27 10:45:55;;;;;;;14.75;5.68;;;;;;;27.07;34.87;100328.03;4374831;32;34449;-72
2023/09/27 10:48:24;;;;;;;9.73;5.12;;;;;;;26.98;36.08;100332.00;4369152;32;34863;-72
2023/09/27 10:50:56;;;;;;;12.23;5.28;;;;;;;27.11;36.63;100323.78;4367217;32;34152;-72
2023/09/27 10:53:25;;;;;;;13.20;5.80;;;;;;;27.19;37.04;100323.62;4382020;32;33286;-72
2023/09/27 10:55:53;;;;;;;12.23;5.75;;;;;;;27.38;36.86;100322.81;4381438;32;34147;-70
2023/09/27 10:58:21;;;;;;;12.48;5.97;;;;;;;27.34;36.04;100309.69;4398460;32;34660;-70
2023/09/27 11:01:03;;;;;;;8.90;5.12;;;;;;;27.16;36.58;100313.06;4389123;32;34969;-70
2023/09/27 11:03:33;;;;;;;9.35;5.65;;;;;;;27.26;37.32;100298.91;4385211;32;33710;-70
2023/09/27 11:06:11;;;;;;;7.55;4.50;;;;;;;27.84;36.13;100296.38;4389573;32;34645;-70
2023/09/27 11:08:41;;;;;;;9.80;4.85;;;;;;;28.03;35.03;100289.97;4384471;32;33887;-71
2023/09/27 11:11:14;;;;;;;9.32;5.15;;;;;;;27.87;34.54;100290.44;4389115;32;34217;-70
2023/09/27 11:13:43;;;;;;;9.50;5.20;;;;;;;28.04;34.06;100279.81;4390653;32;34668;-73
2023/09/27 11:16:15;;;;;;;8.35;3.95;;;;;;;27.80;35.59;100286.84;4385008;32;32359;-70
2023/09/27 11:18:48;;;;;;;13.18;5.32;;;;;;;27.94;35.09;100272.00;4388902;32;33674;-73
2023/09/27 11:21:16;;;;;;;10.60;4.37;;;;;;;27.17;36.42;100274.37;4389754;32;33819;-73
2023/09/27 11:23:54;;;;;;;9.27;6.05;;;;;;;27.65;35.15;100276.06;4388118;32;33798;-73
2023/09/27 11:26:24;;;;;;;9.43;5.22;;;;;;;27.80;34.74;100275.84;4387208;32;33684;-73
2023/09/27 11:28:58;;;;;;;10.50;5.15;;;;;;;27.78;35.51;100270.56;4389965;32;34659;-73
2023/09/27 11:31:32;;;;;;;12.30;6.35;;;;;;;27.81;34.92;100266.56;4386028;32;33782;-73
2023/09/27 11:34:16;;;;;;;7.47;4.32;;;;;;;27.93;34.66;100270.34;4387457;32;33334;-74